sensor_id;sensor_type;location;lat;lon;timestamp;P1;durP1;ratioP1;P2;durP2;ratioP2
5010;SDS011;2524;54.364;10.072;2022-10-16T00:01:05;6.73;;;6.10;;
5010;SDS011;2524;54.364;10.072;2022-10-16T00:03:36;6.00;;;5.53;;
5010;SDS011;2524;54.364;10.072;2022-10-16T00:06:02;4.97;;;4.67;;
5010;SDS011;2524;54.364;10.072;2022-10-16T00:08:28;6.40;;;5.03;;
5010;SDS011;2524;54.364;10.072;2022-10-16T00:11:05;8.70;;;7.00;;
5010;SDS011;2524;54.364;10.072;2022-10-16T00:13:35;6.70;;;6.17;;
5010;SDS011;2524;54.364;10.072;2022-10-16T00:16:03;7.60;;;6.83;;
5010;SDS011;2524;54.364;10.072;2022-10-16T00:18:30;6.60;;;6.00;;
5010;SDS011;2524;54.364;10.072;2022-10-16T00:21:00;5.67;;;5.27;;
5010;SDS011;2524;54.364;10.072;2022-10-16T00:23:28;5.90;;;5.30;;
5010;SDS011;2524;54.364;10.072;2022-10-16T00:25:54;6.30;;;5.80;;
5010;SDS011;2524;54.364;10.072;2022-10-16T00:28:20;7.47;;;6.77;;
5010;SDS011;2524;54.364;10.072;2022-10-16T00:30:46;7.10;;;6.20;;
5010;SDS011;2524;54.364;10.072;2022-10-16T00:33:12;4.80;;;4.50;;
5010;SDS011;2524;54.364;10.072;2022-10-16T00:35:37;10.50;;;7.00;;
5010;SDS011;2524;54.364;10.072;2022-10-16T00:38:03;5.87;;;5.47;;
5010;SDS011;2524;54.364;10.072;2022-10-16T00:40:28;6.50;;;5.90;;
5010;SDS011;2524;54.364;10.072;2022-10-16T00:42:54;5.90;;;5.30;;
5010;SDS011;2524;54.364;10.072;2022-10-16T00:45:20;8.57;;;6.87;;
5010;SDS011;2524;54.364;10.072;2022-10-16T00:47:45;5.50;;;5.10;;
5010;SDS011;2524;54.364;10.072;2022-10-16T00:50:18;7.67;;;6.87;;
5010;SDS011;2524;54.364;10.072;2022-10-16T00:52:54;5.93;;;5.17;;
5010;SDS011;2524;54.364;10.072;2022-10-16T00:55:22;5.53;;;5.03;;
5010;SDS011;2524;54.364;10.072;2022-10-16T00:57:48;5.57;;;5.07;;
5010;SDS011;2524;54.364;10.072;2022-10-16T01:00:18;5.00;;;4.60;;
5010;SDS011;2524;54.364;10.072;2022-10-16T01:02:55;5.10;;;4.60;;
5010;SDS011;2524;54.364;10.072;2022-10-16T01:05:23;5.07;;;4.70;;
5010;SDS011;2524;54.364;10.072;2022-10-16T01:08:16;4.80;;;4.40;;
5010;SDS011;2524;54.364;10.072;2022-10-16T01:11:01;3.80;;;3.60;;
5010;SDS011;2524;54.364;10.072;2022-10-16T01:13:53;4.67;;;4.37;;
5010;SDS011;2524;54.364;10.072;2022-10-16T01:18:54;3.70;;;3.50;;
5010;SDS011;2524;54.364;10.072;2022-10-16T01:21:38;6.17;;;5.10;;
5010;SDS011;2524;54.364;10.072;2022-10-16T01:27:07;6.27;;;5.73;;
5010;SDS011;2524;54.364;10.072;2022-10-16T01:29:45;4.47;;;4.17;;
5010;SDS011;2524;54.364;10.072;2022-10-16T01:32:27;4.07;;;3.77;;
5010;SDS011;2524;54.364;10.072;2022-10-16T01:40:21;4.40;;;4.10;;
5010;SDS011;2524;54.364;10.072;2022-10-16T01:43:01;5.60;;;5.00;;
5010;SDS011;2524;54.364;10.072;2022-10-16T01:45:31;5.13;;;4.63;;
5010;SDS011;2524;54.364;10.072;2022-10-16T01:47:58;4.73;;;4.33;;
5010;SDS011;2524;54.364;10.072;2022-10-16T01:50:29;5.20;;;4.80;;
5010;SDS011;2524;54.364;10.072;2022-10-16T01:52:58;5.33;;;4.93;;
5010;SDS011;2524;54.364;10.072;2022-10-16T01:55:31;5.03;;;4.73;;
5010;SDS011;2524;54.364;10.072;2022-10-16T01:58:01;8.40;;;5.93;;
5010;SDS011;2524;54.364;10.072;2022-10-16T02:00:30;5.03;;;4.63;;
5010;SDS011;2524;54.364;10.072;2022-10-16T02:02:56;15.33;;;6.93;;
5010;SDS011;2524;54.364;10.072;2022-10-16T02:05:28;6.50;;;5.40;;
5010;SDS011;2524;54.364;10.072;2022-10-16T02:07:58;8.77;;;4.87;;
5010;SDS011;2524;54.364;10.072;2022-10-16T02:10:24;5.47;;;4.90;;
5010;SDS011;2524;54.364;10.072;2022-10-16T02:12:54;4.80;;;4.50;;
5010;SDS011;2524;54.364;10.072;2022-10-16T02:15:47;3.87;;;3.57;;
5010;SDS011;2524;54.364;10.072;2022-10-16T02:18:13;7.67;;;5.60;;
5010;SDS011;2524;54.364;10.072;2022-10-16T02:20:44;4.77;;;4.47;;
5010;SDS011;2524;54.364;10.072;2022-10-16T02:23:25;4.30;;;4.00;;
5010;SDS011;2524;54.364;10.072;2022-10-16T02:26:09;7.17;;;5.60;;
5010;SDS011;2524;54.364;10.072;2022-10-16T02:28:40;5.13;;;4.67;;
5010;SDS011;2524;54.364;10.072;2022-10-16T02:31:10;5.47;;;5.03;;
5010;SDS011;2524;54.364;10.072;2022-10-16T02:33:38;7.93;;;6.73;;
5010;SDS011;2524;54.364;10.072;2022-10-16T02:36:06;5.27;;;4.77;;
5010;SDS011;2524;54.364;10.072;2022-10-16T02:38:32;5.03;;;4.63;;
5010;SDS011;2524;54.364;10.072;2022-10-16T02:40:58;7.93;;;6.70;;
5010;SDS011;2524;54.364;10.072;2022-10-16T02:43:24;6.40;;;5.47;;
5010;SDS011;2524;54.364;10.072;2022-10-16T02:45:50;5.57;;;5.07;;
5010;SDS011;2524;54.364;10.072;2022-10-16T02:48:16;6.60;;;5.43;;
5010;SDS011;2524;54.364;10.072;2022-10-16T02:50:41;5.10;;;4.60;;
5010;SDS011;2524;54.364;10.072;2022-10-16T02:53:07;5.80;;;5.30;;
5010;SDS011;2524;54.364;10.072;2022-10-16T02:55:33;5.13;;;4.77;;
5010;SDS011;2524;54.364;10.072;2022-10-16T02:57:58;4.60;;;4.30;;
5010;SDS011;2524;54.364;10.072;2022-10-16T03:00:24;4.80;;;4.50;;
5010;SDS011;2524;54.364;10.072;2022-10-16T03:02:49;5.70;;;5.20;;
5010;SDS011;2524;54.364;10.072;2022-10-16T03:05:15;5.27;;;4.87;;
5010;SDS011;2524;54.364;10.072;2022-10-16T03:07:41;6.00;;;5.47;;
5010;SDS011;2524;54.364;10.072;2022-10-16T03:10:07;6.70;;;5.40;;
5010;SDS011;2524;54.364;10.072;2022-10-16T03:12:33;5.03;;;4.63;;
5010;SDS011;2524;54.364;10.072;2022-10-16T03:14:59;4.87;;;4.37;;
5010;SDS011;2524;54.364;10.072;2022-10-16T03:17:24;4.73;;;4.43;;
5010;SDS011;2524;54.364;10.072;2022-10-16T03:19:50;4.80;;;3.87;;
5010;SDS011;2524;54.364;10.072;2022-10-16T03:22:16;4.60;;;4.20;;
5010;SDS011;2524;54.364;10.072;2022-10-16T03:24:42;4.20;;;4.00;;
5010;SDS011;2524;54.364;10.072;2022-10-16T03:27:08;4.30;;;4.10;;
5010;SDS011;2524;54.364;10.072;2022-10-16T03:29:33;5.70;;;4.93;;
5010;SDS011;2524;54.364;10.072;2022-10-16T03:31:59;6.03;;;5.53;;
5010;SDS011;2524;54.364;10.072;2022-10-16T03:34:24;5.33;;;4.87;;
5010;SDS011;2524;54.364;10.072;2022-10-16T03:36:50;4.10;;;3.80;;
5010;SDS011;2524;54.364;10.072;2022-10-16T03:39:16;7.00;;;4.80;;
5010;SDS011;2524;54.364;10.072;2022-10-16T03:41:42;4.73;;;4.33;;
5010;SDS011;2524;54.364;10.072;2022-10-16T03:44:07;5.03;;;4.63;;
5010;SDS011;2524;54.364;10.072;2022-10-16T03:46:33;6.50;;;4.30;;
5010;SDS011;2524;54.364;10.072;2022-10-16T03:48:58;4.60;;;4.20;;
5010;SDS011;2524;54.364;10.072;2022-10-16T03:51:24;5.10;;;4.60;;
5010;SDS011;2524;54.364;10.072;2022-10-16T03:53:49;4.80;;;4.00;;
5010;SDS011;2524;54.364;10.072;2022-10-16T03:56:15;4.30;;;3.93;;
5010;SDS011;2524;54.364;10.072;2022-10-16T03:58:41;3.77;;;3.50;;
5010;SDS011;2524;54.364;10.072;2022-10-16T04:01:06;3.87;;;3.63;;
5010;SDS011;2524;54.364;10.072;2022-10-16T04:03:32;4.27;;;3.97;;
5010;SDS011;2524;54.364;10.072;2022-10-16T04:05:57;4.63;;;4.33;;
5010;SDS011;2524;54.364;10.072;2022-10-16T04:08:23;3.63;;;3.33;;
5010;SDS011;2524;54.364;10.072;2022-10-16T04:10:49;4.53;;;4.13;;
5010;SDS011;2524;54.364;10.072;2022-10-16T04:13:14;3.60;;;3.30;;
5010;SDS011;2524;54.364;10.072;2022-10-16T04:15:40;6.60;;;4.03;;
5010;SDS011;2524;54.364;10.072;2022-10-16T04:18:06;4.00;;;3.37;;
5010;SDS011;2524;54.364;10.072;2022-10-16T04:20:32;4.00;;;3.80;;
5010;SDS011;2524;54.364;10.072;2022-10-16T04:22:58;3.63;;;3.33;;
5010;SDS011;2524;54.364;10.072;2022-10-16T04:25:24;2.73;;;2.60;;
5010;SDS011;2524;54.364;10.072;2022-10-16T04:27:49;4.27;;;3.00;;
5010;SDS011;2524;54.364;10.072;2022-10-16T04:30:17;3.00;;;2.70;;
5010;SDS011;2524;54.364;10.072;2022-10-16T04:32:42;2.63;;;2.20;;
5010;SDS011;2524;54.364;10.072;2022-10-16T04:35:08;3.10;;;2.83;;
5010;SDS011;2524;54.364;10.072;2022-10-16T04:37:34;2.70;;;2.50;;
5010;SDS011;2524;54.364;10.072;2022-10-16T04:39:59;2.47;;;2.27;;
5010;SDS011;2524;54.364;10.072;2022-10-16T04:42:25;2.60;;;2.40;;
5010;SDS011;2524;54.364;10.072;2022-10-16T04:44:50;3.60;;;3.00;;
5010;SDS011;2524;54.364;10.072;2022-10-16T04:47:16;2.43;;;2.23;;
5010;SDS011;2524;54.364;10.072;2022-10-16T04:49:41;2.27;;;2.13;;
5010;SDS011;2524;54.364;10.072;2022-10-16T04:52:07;3.40;;;2.10;;
5010;SDS011;2524;54.364;10.072;2022-10-16T04:54:34;2.13;;;2.03;;
5010;SDS011;2524;54.364;10.072;2022-10-16T04:57:00;3.13;;;2.40;;
5010;SDS011;2524;54.364;10.072;2022-10-16T04:59:25;3.00;;;1.80;;
5010;SDS011;2524;54.364;10.072;2022-10-16T05:01:51;1.97;;;1.77;;
5010;SDS011;2524;54.364;10.072;2022-10-16T05:04:16;4.20;;;2.47;;
5010;SDS011;2524;54.364;10.072;2022-10-16T05:06:42;1.90;;;1.80;;
5010;SDS011;2524;54.364;10.072;2022-10-16T05:09:08;1.93;;;1.83;;
5010;SDS011;2524;54.364;10.072;2022-10-16T05:11:34;2.73;;;1.93;;
5010;SDS011;2524;54.364;10.072;2022-10-16T05:14:00;1.80;;;1.70;;
5010;SDS011;2524;54.364;10.072;2022-10-16T05:16:26;2.67;;;2.03;;
5010;SDS011;2524;54.364;10.072;2022-10-16T05:18:51;4.70;;;1.50;;
5010;SDS011;2524;54.364;10.072;2022-10-16T05:21:17;4.37;;;1.80;;
5010;SDS011;2524;54.364;10.072;2022-10-16T05:23:43;2.40;;;2.30;;
5010;SDS011;2524;54.364;10.072;2022-10-16T05:26:09;2.20;;;2.10;;
5010;SDS011;2524;54.364;10.072;2022-10-16T05:28:34;2.27;;;2.07;;
5010;SDS011;2524;54.364;10.072;2022-10-16T05:31:04;2.20;;;2.10;;
5010;SDS011;2524;54.364;10.072;2022-10-16T05:33:33;2.00;;;1.90;;
5010;SDS011;2524;54.364;10.072;2022-10-16T05:36:05;3.20;;;2.07;;
5010;SDS011;2524;54.364;10.072;2022-10-16T05:38:36;3.03;;;2.60;;
5010;SDS011;2524;54.364;10.072;2022-10-16T05:41:02;3.17;;;2.10;;
5010;SDS011;2524;54.364;10.072;2022-10-16T05:43:29;2.23;;;1.70;;
5010;SDS011;2524;54.364;10.072;2022-10-16T05:46:05;2.13;;;2.03;;
5010;SDS011;2524;54.364;10.072;2022-10-16T05:48:31;2.00;;;1.73;;
5010;SDS011;2524;54.364;10.072;2022-10-16T05:51:01;2.30;;;2.10;;
5010;SDS011;2524;54.364;10.072;2022-10-16T05:53:32;2.33;;;2.10;;
5010;SDS011;2524;54.364;10.072;2022-10-16T05:55:59;2.47;;;2.30;;
5010;SDS011;2524;54.364;10.072;2022-10-16T05:58:28;3.90;;;2.17;;
5010;SDS011;2524;54.364;10.072;2022-10-16T06:00:57;1.70;;;1.70;;
5010;SDS011;2524;54.364;10.072;2022-10-16T06:03:27;2.30;;;2.10;;
5010;SDS011;2524;54.364;10.072;2022-10-16T06:05:53;2.47;;;2.10;;
5010;SDS011;2524;54.364;10.072;2022-10-16T06:08:19;1.80;;;1.70;;
5010;SDS011;2524;54.364;10.072;2022-10-16T06:10:46;1.80;;;1.70;;
5010;SDS011;2524;54.364;10.072;2022-10-16T06:13:12;1.60;;;1.50;;
5010;SDS011;2524;54.364;10.072;2022-10-16T06:15:39;3.50;;;2.20;;
5010;SDS011;2524;54.364;10.072;2022-10-16T06:18:06;1.83;;;1.73;;
5010;SDS011;2524;54.364;10.072;2022-10-16T06:20:32;2.10;;;1.80;;
5010;SDS011;2524;54.364;10.072;2022-10-16T06:22:58;1.60;;;1.50;;
5010;SDS011;2524;54.364;10.072;2022-10-16T06:25:23;2.30;;;1.80;;
5010;SDS011;2524;54.364;10.072;2022-10-16T06:27:49;2.13;;;1.60;;
5010;SDS011;2524;54.364;10.072;2022-10-16T06:30:15;2.40;;;2.20;;
5010;SDS011;2524;54.364;10.072;2022-10-16T06:32:40;2.73;;;2.50;;
5010;SDS011;2524;54.364;10.072;2022-10-16T06:35:06;2.30;;;2.20;;
5010;SDS011;2524;54.364;10.072;2022-10-16T06:37:32;2.47;;;2.33;;
5010;SDS011;2524;54.364;10.072;2022-10-16T06:39:57;2.10;;;2.00;;
5010;SDS011;2524;54.364;10.072;2022-10-16T06:42:23;2.13;;;2.03;;
5010;SDS011;2524;54.364;10.072;2022-10-16T06:44:48;2.40;;;2.17;;
5010;SDS011;2524;54.364;10.072;2022-10-16T06:47:14;2.90;;;2.20;;
5010;SDS011;2524;54.364;10.072;2022-10-16T06:49:39;2.23;;;2.00;;
5010;SDS011;2524;54.364;10.072;2022-10-16T06:52:05;2.13;;;2.00;;
5010;SDS011;2524;54.364;10.072;2022-10-16T06:54:30;2.00;;;1.53;;
5010;SDS011;2524;54.364;10.072;2022-10-16T06:56:56;1.70;;;1.60;;
5010;SDS011;2524;54.364;10.072;2022-10-16T06:59:22;2.37;;;1.80;;
5010;SDS011;2524;54.364;10.072;2022-10-16T07:01:47;2.23;;;2.00;;
5010;SDS011;2524;54.364;10.072;2022-10-16T07:04:13;2.90;;;1.73;;
5010;SDS011;2524;54.364;10.072;2022-10-16T07:06:39;1.93;;;1.87;;
5010;SDS011;2524;54.364;10.072;2022-10-16T07:09:06;1.80;;;1.70;;
5010;SDS011;2524;54.364;10.072;2022-10-16T07:11:33;1.63;;;1.60;;
5010;SDS011;2524;54.364;10.072;2022-10-16T07:14:00;2.10;;;1.90;;
5010;SDS011;2524;54.364;10.072;2022-10-16T07:16:26;1.50;;;1.50;;
5010;SDS011;2524;54.364;10.072;2022-10-16T07:18:58;1.50;;;1.50;;
5010;SDS011;2524;54.364;10.072;2022-10-16T07:21:27;2.00;;;1.90;;
5010;SDS011;2524;54.364;10.072;2022-10-16T07:23:56;1.80;;;1.70;;
5010;SDS011;2524;54.364;10.072;2022-10-16T07:26:24;2.13;;;2.00;;
5010;SDS011;2524;54.364;10.072;2022-10-16T07:28:51;1.93;;;1.83;;
5010;SDS011;2524;54.364;10.072;2022-10-16T07:31:18;1.87;;;1.77;;
5010;SDS011;2524;54.364;10.072;2022-10-16T07:33:45;3.10;;;2.50;;
5010;SDS011;2524;54.364;10.072;2022-10-16T07:36:13;2.70;;;2.50;;
5010;SDS011;2524;54.364;10.072;2022-10-16T07:38:40;2.27;;;2.03;;
5010;SDS011;2524;54.364;10.072;2022-10-16T07:41:07;1.73;;;1.63;;
5010;SDS011;2524;54.364;10.072;2022-10-16T07:43:36;1.90;;;1.80;;
5010;SDS011;2524;54.364;10.072;2022-10-16T07:46:01;6.00;;;1.80;;
5010;SDS011;2524;54.364;10.072;2022-10-16T07:48:28;3.83;;;1.80;;
5010;SDS011;2524;54.364;10.072;2022-10-16T07:50:59;3.00;;;2.30;;
5010;SDS011;2524;54.364;10.072;2022-10-16T07:53:26;2.10;;;2.00;;
5010;SDS011;2524;54.364;10.072;2022-10-16T07:55:56;3.37;;;3.07;;
5010;SDS011;2524;54.364;10.072;2022-10-16T07:58:23;2.73;;;2.23;;
5010;SDS011;2524;54.364;10.072;2022-10-16T08:00:49;2.37;;;2.27;;
5010;SDS011;2524;54.364;10.072;2022-10-16T08:03:14;4.53;;;1.97;;
5010;SDS011;2524;54.364;10.072;2022-10-16T08:05:40;2.00;;;1.90;;
5010;SDS011;2524;54.364;10.072;2022-10-16T08:08:05;4.27;;;2.40;;
5010;SDS011;2524;54.364;10.072;2022-10-16T08:10:31;4.30;;;2.97;;
5010;SDS011;2524;54.364;10.072;2022-10-16T08:12:57;3.63;;;2.47;;
5010;SDS011;2524;54.364;10.072;2022-10-16T08:15:22;2.10;;;2.00;;
5010;SDS011;2524;54.364;10.072;2022-10-16T08:17:58;2.63;;;2.43;;
5010;SDS011;2524;54.364;10.072;2022-10-16T08:20:29;2.93;;;2.60;;
5010;SDS011;2524;54.364;10.072;2022-10-16T08:22:56;2.73;;;2.20;;
5010;SDS011;2524;54.364;10.072;2022-10-16T08:25:22;2.60;;;2.40;;
5010;SDS011;2524;54.364;10.072;2022-10-16T08:27:48;2.70;;;2.43;;
5010;SDS011;2524;54.364;10.072;2022-10-16T08:30:14;2.40;;;2.20;;
5010;SDS011;2524;54.364;10.072;2022-10-16T08:32:40;3.30;;;2.90;;
5010;SDS011;2524;54.364;10.072;2022-10-16T08:35:07;4.33;;;2.90;;
5010;SDS011;2524;54.364;10.072;2022-10-16T08:37:37;3.00;;;2.80;;
5010;SDS011;2524;54.364;10.072;2022-10-16T08:40:03;3.27;;;2.33;;
5010;SDS011;2524;54.364;10.072;2022-10-16T08:42:34;3.40;;;3.17;;
5010;SDS011;2524;54.364;10.072;2022-10-16T08:50:49;3.40;;;3.07;;
5010;SDS011;2524;54.364;10.072;2022-10-16T08:53:50;3.03;;;2.83;;
5010;SDS011;2524;54.364;10.072;2022-10-16T08:56:11;2.40;;;2.20;;
5010;SDS011;2524;54.364;10.072;2022-10-16T08:58:37;7.03;;;3.70;;
5010;SDS011;2524;54.364;10.072;2022-10-16T09:01:10;3.33;;;2.70;;
5010;SDS011;2524;54.364;10.072;2022-10-16T09:06:33;3.90;;;2.23;;
5010;SDS011;2524;54.364;10.072;2022-10-16T09:11:52;5.50;;;2.80;;
5010;SDS011;2524;54.364;10.072;2022-10-16T09:14:45;3.40;;;2.73;;
5010;SDS011;2524;54.364;10.072;2022-10-16T09:17:26;4.77;;;2.60;;
5010;SDS011;2524;54.364;10.072;2022-10-16T09:22:44;3.93;;;3.00;;
5010;SDS011;2524;54.364;10.072;2022-10-16T09:25:11;2.60;;;2.37;;
5010;SDS011;2524;54.364;10.072;2022-10-16T09:27:44;2.80;;;2.20;;
5010;SDS011;2524;54.364;10.072;2022-10-16T09:30:16;6.60;;;2.63;;
5010;SDS011;2524;54.364;10.072;2022-10-16T09:32:43;6.47;;;3.00;;
5010;SDS011;2524;54.364;10.072;2022-10-16T09:35:17;12.33;;;3.13;;
5010;SDS011;2524;54.364;10.072;2022-10-16T09:37:45;3.67;;;2.40;;
5010;SDS011;2524;54.364;10.072;2022-10-16T09:40:24;5.83;;;2.30;;
5010;SDS011;2524;54.364;10.072;2022-10-16T09:43:01;6.70;;;2.57;;
5010;SDS011;2524;54.364;10.072;2022-10-16T09:45:33;5.90;;;2.60;;
5010;SDS011;2524;54.364;10.072;2022-10-16T09:48:00;2.20;;;2.00;;
5010;SDS011;2524;54.364;10.072;2022-10-16T09:50:35;5.90;;;2.20;;
5010;SDS011;2524;54.364;10.072;2022-10-16T09:53:13;3.37;;;2.00;;
5010;SDS011;2524;54.364;10.072;2022-10-16T09:55:49;5.57;;;2.60;;
5010;SDS011;2524;54.364;10.072;2022-10-16T09:58:15;4.90;;;2.20;;
5010;SDS011;2524;54.364;10.072;2022-10-16T10:00:41;14.27;;;2.70;;
5010;SDS011;2524;54.364;10.072;2022-10-16T10:03:19;5.70;;;2.80;;
5010;SDS011;2524;54.364;10.072;2022-10-16T10:06:01;4.63;;;2.70;;
5010;SDS011;2524;54.364;10.072;2022-10-16T10:08:52;4.47;;;2.67;;
5010;SDS011;2524;54.364;10.072;2022-10-16T10:19:41;7.40;;;2.73;;
5010;SDS011;2524;54.364;10.072;2022-10-16T10:24:44;2.70;;;2.30;;
5010;SDS011;2524;54.364;10.072;2022-10-16T10:27:19;2.10;;;2.00;;
5010;SDS011;2524;54.364;10.072;2022-10-16T10:29:52;3.20;;;2.30;;
5010;SDS011;2524;54.364;10.072;2022-10-16T10:32:27;4.90;;;2.57;;
5010;SDS011;2524;54.364;10.072;2022-10-16T10:35:13;5.43;;;2.80;;
5010;SDS011;2524;54.364;10.072;2022-10-16T10:38:05;2.73;;;2.47;;
5010;SDS011;2524;54.364;10.072;2022-10-16T10:41:00;3.03;;;2.20;;
5010;SDS011;2524;54.364;10.072;2022-10-16T10:46:14;3.43;;;2.00;;
5010;SDS011;2524;54.364;10.072;2022-10-16T10:48:58;2.67;;;2.10;;
5010;SDS011;2524;54.364;10.072;2022-10-16T10:54:47;1.77;;;1.67;;
5010;SDS011;2524;54.364;10.072;2022-10-16T11:00:16;2.13;;;1.97;;
5010;SDS011;2524;54.364;10.072;2022-10-16T11:05:40;2.47;;;1.97;;
5010;SDS011;2524;54.364;10.072;2022-10-16T11:11:25;3.17;;;2.07;;
5010;SDS011;2524;54.364;10.072;2022-10-16T11:16:45;2.97;;;2.07;;
5010;SDS011;2524;54.364;10.072;2022-10-16T11:27:37;5.20;;;2.27;;
5010;SDS011;2524;54.364;10.072;2022-10-16T11:30:12;4.30;;;1.80;;
5010;SDS011;2524;54.364;10.072;2022-10-16T11:32:49;4.10;;;1.70;;
5010;SDS011;2524;54.364;10.072;2022-10-16T11:36:08;5.60;;;1.93;;
5010;SDS011;2524;54.364;10.072;2022-10-16T11:38:15;3.13;;;1.77;;
5010;SDS011;2524;54.364;10.072;2022-10-16T11:40:45;6.63;;;2.00;;
5010;SDS011;2524;54.364;10.072;2022-10-16T11:43:17;3.70;;;2.00;;
5010;SDS011;2524;54.364;10.072;2022-10-16T11:46:04;4.27;;;1.83;;
5010;SDS011;2524;54.364;10.072;2022-10-16T11:48:57;2.97;;;1.53;;
5010;SDS011;2524;54.364;10.072;2022-10-16T11:51:42;2.23;;;1.50;;
5010;SDS011;2524;54.364;10.072;2022-10-16T11:54:47;2.07;;;1.47;;
5010;SDS011;2524;54.364;10.072;2022-10-16T11:57:20;3.50;;;1.53;;
5010;SDS011;2524;54.364;10.072;2022-10-16T11:59:59;5.77;;;1.50;;
5010;SDS011;2524;54.364;10.072;2022-10-16T12:02:40;4.07;;;1.90;;
5010;SDS011;2524;54.364;10.072;2022-10-16T12:05:12;6.20;;;1.93;;
5010;SDS011;2524;54.364;10.072;2022-10-16T12:08:06;2.67;;;1.87;;
5010;SDS011;2524;54.364;10.072;2022-10-16T12:10:36;5.10;;;1.53;;
5010;SDS011;2524;54.364;10.072;2022-10-16T12:13:48;7.10;;;1.90;;
5010;SDS011;2524;54.364;10.072;2022-10-16T12:18:39;6.47;;;2.40;;
5010;SDS011;2524;54.364;10.072;2022-10-16T12:21:06;7.47;;;1.87;;
5010;SDS011;2524;54.364;10.072;2022-10-16T12:23:36;8.57;;;2.00;;
5010;SDS011;2524;54.364;10.072;2022-10-16T12:26:11;4.90;;;2.20;;
5010;SDS011;2524;54.364;10.072;2022-10-16T12:28:37;3.13;;;1.40;;
5010;SDS011;2524;54.364;10.072;2022-10-16T12:31:07;2.63;;;1.70;;
5010;SDS011;2524;54.364;10.072;2022-10-16T12:33:39;5.40;;;1.87;;
5010;SDS011;2524;54.364;10.072;2022-10-16T12:36:15;5.27;;;1.77;;
5010;SDS011;2524;54.364;10.072;2022-10-16T12:41:32;8.00;;;2.77;;
5010;SDS011;2524;54.364;10.072;2022-10-16T12:44:02;8.70;;;1.60;;
5010;SDS011;2524;54.364;10.072;2022-10-16T12:49:04;8.47;;;2.03;;
5010;SDS011;2524;54.364;10.072;2022-10-16T12:51:41;6.23;;;1.83;;
5010;SDS011;2524;54.364;10.072;2022-10-16T13:02:33;7.07;;;2.10;;
5010;SDS011;2524;54.364;10.072;2022-10-16T13:16:52;6.00;;;1.63;;
5010;SDS011;2524;54.364;10.072;2022-10-16T13:19:44;7.90;;;2.33;;
5010;SDS011;2524;54.364;10.072;2022-10-16T13:24:51;8.53;;;2.10;;
5010;SDS011;2524;54.364;10.072;2022-10-16T13:27:46;6.13;;;2.20;;
5010;SDS011;2524;54.364;10.072;2022-10-16T13:30:25;3.33;;;1.97;;
5010;SDS011;2524;54.364;10.072;2022-10-16T13:35:46;3.37;;;1.47;;
5010;SDS011;2524;54.364;10.072;2022-10-16T13:38:20;3.70;;;1.67;;
5010;SDS011;2524;54.364;10.072;2022-10-16T13:40:58;5.10;;;2.10;;
5010;SDS011;2524;54.364;10.072;2022-10-16T13:43:31;7.57;;;1.83;;
5010;SDS011;2524;54.364;10.072;2022-10-16T13:45:59;7.53;;;1.97;;
5010;SDS011;2524;54.364;10.072;2022-10-16T13:48:27;5.93;;;2.07;;
5010;SDS011;2524;54.364;10.072;2022-10-16T13:51:00;3.17;;;1.90;;
5010;SDS011;2524;54.364;10.072;2022-10-16T13:53:33;10.43;;;2.30;;
5010;SDS011;2524;54.364;10.072;2022-10-16T13:56:01;4.40;;;1.90;;
5010;SDS011;2524;54.364;10.072;2022-10-16T13:58:31;5.70;;;2.40;;
5010;SDS011;2524;54.364;10.072;2022-10-16T14:01:02;7.30;;;1.90;;
5010;SDS011;2524;54.364;10.072;2022-10-16T14:03:40;5.80;;;1.97;;
5010;SDS011;2524;54.364;10.072;2022-10-16T14:06:10;3.13;;;1.80;;
5010;SDS011;2524;54.364;10.072;2022-10-16T14:08:45;5.27;;;1.57;;
5010;SDS011;2524;54.364;10.072;2022-10-16T14:11:22;7.60;;;1.97;;
5010;SDS011;2524;54.364;10.072;2022-10-16T14:13:48;3.40;;;1.60;;
5010;SDS011;2524;54.364;10.072;2022-10-16T14:18:57;3.70;;;1.40;;
5010;SDS011;2524;54.364;10.072;2022-10-16T14:21:28;5.50;;;1.60;;
5010;SDS011;2524;54.364;10.072;2022-10-16T14:23:54;6.40;;;1.63;;
5010;SDS011;2524;54.364;10.072;2022-10-16T14:26:25;4.50;;;1.50;;
5010;SDS011;2524;54.364;10.072;2022-10-16T14:29:13;6.60;;;2.07;;
5010;SDS011;2524;54.364;10.072;2022-10-16T14:31:40;9.40;;;2.40;;
5010;SDS011;2524;54.364;10.072;2022-10-16T14:34:22;3.53;;;1.80;;
5010;SDS011;2524;54.364;10.072;2022-10-16T14:36:53;3.90;;;1.60;;
5010;SDS011;2524;54.364;10.072;2022-10-16T14:39:23;3.10;;;1.40;;
5010;SDS011;2524;54.364;10.072;2022-10-16T14:41:54;7.83;;;2.30;;
5010;SDS011;2524;54.364;10.072;2022-10-16T14:44:22;6.57;;;2.30;;
5010;SDS011;2524;54.364;10.072;2022-10-16T14:46:56;8.30;;;1.87;;
5010;SDS011;2524;54.364;10.072;2022-10-16T14:49:22;6.23;;;1.97;;
5010;SDS011;2524;54.364;10.072;2022-10-16T14:51:49;7.53;;;2.77;;
5010;SDS011;2524;54.364;10.072;2022-10-16T14:54:16;6.07;;;2.20;;
5010;SDS011;2524;54.364;10.072;2022-10-16T15:02:02;11.70;;;3.00;;
5010;SDS011;2524;54.364;10.072;2022-10-16T15:05:20;5.40;;;2.67;;
5010;SDS011;2524;54.364;10.072;2022-10-16T15:07:48;7.47;;;2.20;;
5010;SDS011;2524;54.364;10.072;2022-10-16T15:10:15;8.47;;;2.67;;
5010;SDS011;2524;54.364;10.072;2022-10-16T15:12:42;9.30;;;2.70;;
5010;SDS011;2524;54.364;10.072;2022-10-16T15:17:50;2.43;;;1.90;;
5010;SDS011;2524;54.364;10.072;2022-10-16T15:20:21;7.13;;;1.90;;
5010;SDS011;2524;54.364;10.072;2022-10-16T15:22:50;2.90;;;1.40;;
5010;SDS011;2524;54.364;10.072;2022-10-16T15:27:53;6.10;;;2.07;;
5010;SDS011;2524;54.364;10.072;2022-10-16T15:30:18;3.27;;;1.80;;
5010;SDS011;2524;54.364;10.072;2022-10-16T15:32:44;6.07;;;1.80;;
5010;SDS011;2524;54.364;10.072;2022-10-16T15:35:10;3.27;;;1.50;;
5010;SDS011;2524;54.364;10.072;2022-10-16T15:37:35;2.27;;;1.50;;
5010;SDS011;2524;54.364;10.072;2022-10-16T15:40:01;3.60;;;1.70;;
5010;SDS011;2524;54.364;10.072;2022-10-16T15:42:27;5.80;;;2.10;;
5010;SDS011;2524;54.364;10.072;2022-10-16T15:44:53;4.60;;;2.10;;
5010;SDS011;2524;54.364;10.072;2022-10-16T15:47:18;3.40;;;1.63;;
5010;SDS011;2524;54.364;10.072;2022-10-16T15:49:44;10.47;;;2.10;;
5010;SDS011;2524;54.364;10.072;2022-10-16T15:52:10;7.20;;;2.30;;
5010;SDS011;2524;54.364;10.072;2022-10-16T15:54:36;2.63;;;1.57;;
5010;SDS011;2524;54.364;10.072;2022-10-16T15:57:02;3.17;;;2.00;;
5010;SDS011;2524;54.364;10.072;2022-10-16T15:59:28;3.80;;;1.77;;
5010;SDS011;2524;54.364;10.072;2022-10-16T16:01:53;4.27;;;1.83;;
5010;SDS011;2524;54.364;10.072;2022-10-16T16:04:19;8.60;;;2.70;;
5010;SDS011;2524;54.364;10.072;2022-10-16T16:06:45;6.57;;;2.10;;
5010;SDS011;2524;54.364;10.072;2022-10-16T16:09:11;2.93;;;1.63;;
5010;SDS011;2524;54.364;10.072;2022-10-16T16:11:38;2.80;;;1.70;;
5010;SDS011;2524;54.364;10.072;2022-10-16T16:14:04;4.47;;;1.83;;
5010;SDS011;2524;54.364;10.072;2022-10-16T16:16:31;3.33;;;1.60;;
5010;SDS011;2524;54.364;10.072;2022-10-16T16:19:01;4.40;;;1.90;;
5010;SDS011;2524;54.364;10.072;2022-10-16T16:21:27;3.17;;;1.93;;
5010;SDS011;2524;54.364;10.072;2022-10-16T16:23:57;7.50;;;2.27;;
5010;SDS011;2524;54.364;10.072;2022-10-16T16:26:29;7.43;;;2.50;;
5010;SDS011;2524;54.364;10.072;2022-10-16T16:29:01;6.80;;;2.10;;
5010;SDS011;2524;54.364;10.072;2022-10-16T16:31:28;4.40;;;2.00;;
5010;SDS011;2524;54.364;10.072;2022-10-16T16:33:56;3.37;;;2.00;;
5010;SDS011;2524;54.364;10.072;2022-10-16T16:36:24;3.17;;;1.50;;
5010;SDS011;2524;54.364;10.072;2022-10-16T16:38:50;5.70;;;1.73;;
5010;SDS011;2524;54.364;10.072;2022-10-16T16:41:20;5.53;;;1.90;;
5010;SDS011;2524;54.364;10.072;2022-10-16T16:43:48;3.23;;;1.53;;
5010;SDS011;2524;54.364;10.072;2022-10-16T16:46:16;3.77;;;2.20;;
5010;SDS011;2524;54.364;10.072;2022-10-16T16:48:43;4.40;;;1.93;;
5010;SDS011;2524;54.364;10.072;2022-10-16T16:51:12;5.43;;;1.90;;
5010;SDS011;2524;54.364;10.072;2022-10-16T16:53:41;3.40;;;2.00;;
5010;SDS011;2524;54.364;10.072;2022-10-16T16:56:08;6.47;;;2.30;;
5010;SDS011;2524;54.364;10.072;2022-10-16T16:58:34;3.67;;;1.70;;
5010;SDS011;2524;54.364;10.072;2022-10-16T17:01:00;3.33;;;1.90;;
5010;SDS011;2524;54.364;10.072;2022-10-16T17:03:30;3.37;;;1.87;;
5010;SDS011;2524;54.364;10.072;2022-10-16T17:05:58;5.60;;;2.37;;